createdAt,value
2018-02-20T00:00:37.228Z,12.80
2018-02-20T00:03:07.559Z,12.70
2018-02-20T00:05:37.087Z,12.70
2018-02-20T00:08:06.425Z,13.00
2018-02-20T00:10:36.125Z,12.90
2018-02-20T00:15:35.889Z,12.90
2018-02-20T00:18:05.344Z,12.40
2018-02-20T00:20:34.573Z,12.80
2018-02-20T00:23:04.452Z,12.70
2018-02-20T00:25:33.174Z,12.60
2018-02-20T00:28:02.475Z,12.80
2018-02-20T00:30:41.987Z,12.80
2018-02-20T00:33:11.139Z,12.30
2018-02-20T00:35:41.055Z,12.60
2018-02-20T00:38:10.655Z,12.70
2018-02-20T00:40:40.913Z,12.70
2018-02-20T00:43:11.064Z,12.70
2018-02-20T00:45:39.974Z,12.90
2018-02-20T00:48:09.015Z,13.40
2018-02-20T00:50:38.169Z,12.70
2018-02-20T00:53:07.177Z,13.10
2018-02-20T00:55:36.047Z,12.50
2018-02-20T00:58:05.178Z,12.70
2018-02-20T01:00:34.035Z,12.80
2018-02-20T01:05:33.248Z,13.00
2018-02-20T01:08:01.936Z,13.00
2018-02-20T01:10:30.620Z,12.90
2018-02-20T01:12:59.510Z,13.00
2018-02-20T01:15:28.197Z,12.50
2018-02-20T01:17:57.030Z,12.80
2018-02-20T01:20:26.495Z,12.80
2018-02-20T01:22:55.178Z,13.20
2018-02-20T01:25:24.792Z,12.80
2018-02-20T01:27:53.679Z,12.80
2018-02-20T01:30:22.776Z,12.90
2018-02-20T01:32:51.573Z,12.50
2018-02-20T01:35:20.660Z,13.00
2018-02-20T01:37:49.860Z,12.60
2018-02-20T01:40:19.468Z,12.70
2018-02-20T01:42:48.976Z,12.70
2018-02-20T01:45:17.654Z,13.00
2018-02-20T01:47:46.344Z,12.80
2018-02-20T01:50:15.438Z,12.40
2018-02-20T01:52:44.129Z,12.80
2018-02-20T01:55:14.082Z,12.70
2018-02-20T01:57:43.031Z,12.50
2018-02-20T02:00:11.927Z,12.80
2018-02-20T02:02:41.224Z,12.50
2018-02-20T02:05:11.346Z,12.60
2018-02-20T02:07:41.668Z,12.50
2018-02-20T02:10:11.011Z,12.50
2018-02-20T02:12:39.807Z,12.40
2018-02-20T02:15:09.468Z,12.60
2018-02-20T02:17:38.365Z,12.70
2018-02-20T02:20:07.966Z,12.60
2018-02-20T02:22:37.476Z,12.60
2018-02-20T02:25:06.714Z,12.60
2018-02-20T02:35:06.329Z,12.60
2018-02-20T02:37:35.221Z,12.40
2018-02-20T02:40:04.121Z,12.30
2018-02-20T02:42:34.028Z,12.50
2018-02-20T02:45:02.722Z,12.70
2018-02-20T02:47:31.402Z,12.60
2018-02-20T02:50:00.200Z,12.20
2018-02-20T02:52:29.495Z,12.30
2018-02-20T02:54:58.212Z,12.70
2018-02-20T02:57:27.067Z,12.20
2018-02-20T02:59:56.575Z,12.50
2018-02-20T03:02:25.668Z,12.50
2018-02-20T03:04:54.359Z,12.30
2018-02-20T03:07:23.143Z,12.40
2018-02-20T03:09:52.648Z,12.50
2018-02-20T03:12:21.455Z,12.80
2018-02-20T03:14:50.127Z,12.50
2018-02-20T03:17:18.807Z,12.50
2018-02-20T03:19:47.596Z,12.60
2018-02-20T03:22:17.204Z,12.50
2018-02-20T03:24:46.300Z,12.30
2018-02-20T03:27:15.396Z,12.50
2018-02-20T03:29:44.084Z,12.50
2018-02-20T03:32:12.773Z,12.30
2018-02-20T03:34:42.071Z,11.80
2018-02-20T03:37:10.701Z,12.10
2018-02-20T03:39:39.376Z,12.20
2018-02-20T03:42:08.947Z,12.60
2018-02-20T03:44:37.637Z,12.40
2018-02-20T03:47:06.323Z,12.70
2018-02-20T03:49:35.974Z,12.50
2018-02-20T03:52:04.720Z,12.20
2018-02-20T03:54:34.980Z,12.50
2018-02-20T03:57:03.726Z,12.60
2018-02-20T03:59:32.413Z,12.50
2018-02-20T04:02:01.101Z,12.50
2018-02-20T04:04:30.297Z,12.20
2018-02-20T04:07:00.216Z,12.40
2018-02-20T04:09:29.311Z,12.40
2018-02-20T04:11:58.858Z,12.50
2018-02-20T04:14:27.605Z,12.70
2018-02-20T04:16:56.563Z,12.40
2018-02-20T04:19:26.000Z,12.70
2018-02-20T04:21:55.031Z,12.30
2018-02-20T04:24:25.220Z,12.50
2018-02-20T04:26:54.926Z,12.50
2018-02-20T04:29:25.456Z,12.60
2018-02-20T04:31:54.755Z,12.60
2018-02-20T04:34:25.491Z,12.60
2018-02-20T04:36:54.278Z,12.80
2018-02-20T04:39:23.890Z,12.50
2018-02-20T04:41:52.583Z,12.50
2018-02-20T04:44:21.263Z,12.60
2018-02-20T04:46:50.871Z,12.40
2018-02-20T04:49:19.553Z,12.30
2018-02-20T04:51:48.240Z,12.50
2018-02-20T04:54:17.336Z,12.80
2018-02-20T04:56:46.843Z,12.60
2018-02-20T04:59:15.530Z,12.50
2018-02-20T05:01:44.216Z,12.80
2018-02-20T05:04:13.718Z,12.70
2018-02-20T05:06:42.409Z,12.40
2018-02-20T05:09:11.093Z,12.60
2018-02-20T05:11:40.597Z,12.70
2018-02-20T05:14:09.695Z,12.70
2018-02-20T05:16:39.204Z,12.70
2018-02-20T05:19:07.991Z,12.80
2018-02-20T05:21:37.496Z,12.80
2018-02-20T05:26:36.716Z,12.70
2018-02-20T05:29:05.499Z,12.90
2018-02-20T05:31:34.290Z,12.60
2018-02-20T05:34:02.972Z,13.10
2018-02-20T05:36:32.271Z,12.80
2018-02-20T05:39:01.778Z,12.70
2018-02-20T05:44:00.787Z,12.80
2018-02-20T05:46:30.293Z,12.70
2018-02-20T05:48:59.904Z,12.70
2018-02-20T05:51:29.014Z,12.70
2018-02-20T05:53:58.503Z,12.60
2018-02-20T05:56:27.599Z,12.60
2018-02-20T05:58:56.804Z,12.50
2018-02-20T06:01:27.330Z,12.60
2018-02-20T06:03:56.881Z,12.60
2018-02-20T06:06:26.548Z,12.80
2018-02-20T06:08:56.254Z,12.60
2018-02-20T06:11:24.944Z,12.80
2018-02-20T06:13:53.626Z,12.70
2018-02-20T06:16:22.830Z,12.60
2018-02-20T06:18:52.333Z,12.70
2018-02-20T06:21:21.533Z,12.80
2018-02-20T06:23:51.446Z,12.70
2018-02-20T06:26:20.131Z,12.60
2018-02-20T06:28:49.378Z,12.80
2018-02-20T06:31:18.935Z,12.80
2018-02-20T06:33:47.624Z,13.00
2018-02-20T06:36:16.717Z,12.90
2018-02-20T06:38:45.620Z,12.50
2018-02-20T06:43:46.055Z,12.80
2018-02-20T06:46:15.556Z,12.80
2018-02-20T06:48:45.374Z,12.80
2018-02-20T06:51:15.016Z,12.80
2018-02-20T06:53:44.794Z,12.90
2018-02-20T06:56:14.706Z,13.00
2018-02-20T06:58:45.030Z,13.00
2018-02-20T07:01:13.718Z,12.90
2018-02-20T07:03:42.812Z,13.10
2018-02-20T07:06:12.317Z,13.00
2018-02-20T07:11:12.250Z,13.10
2018-02-20T07:13:40.977Z,13.30
2018-02-20T07:16:11.363Z,13.00
2018-02-20T07:21:10.682Z,12.90
2018-02-20T07:23:39.516Z,12.60
2018-02-20T07:26:08.363Z,13.00
2018-02-20T07:28:37.562Z,13.00
2018-02-20T07:31:07.068Z,12.90
2018-02-20T07:33:36.574Z,12.90
2018-02-20T07:36:05.256Z,12.60
2018-02-20T07:38:34.352Z,12.90
2018-02-20T07:43:33.877Z,13.30
2018-02-20T07:46:02.955Z,13.70
2018-02-20T07:48:32.081Z,13.30
2018-02-20T07:51:01.589Z,13.40
2018-02-20T07:56:01.401Z,13.40
2018-02-20T08:01:01.029Z,13.50
2018-02-20T08:03:30.123Z,13.50
2018-02-20T08:05:59.676Z,13.50
2018-02-20T08:08:28.679Z,13.70
2018-02-20T08:10:58.176Z,13.60
2018-02-20T08:13:27.844Z,13.60
2018-02-20T08:15:57.350Z,13.70
2018-02-20T08:18:26.951Z,13.80
2018-02-20T08:20:56.742Z,13.70
2018-02-20T08:23:25.861Z,13.80
2018-02-20T08:25:55.469Z,14.00
2018-02-20T08:28:24.260Z,13.70
2018-02-20T08:30:54.140Z,14.20
2018-02-20T08:33:23.476Z,14.10
2018-02-20T08:35:53.493Z,14.00
2018-02-20T08:38:22.182Z,14.10
2018-02-20T08:40:52.403Z,14.00
2018-02-20T08:43:21.088Z,14.10
2018-02-20T08:45:50.201Z,13.50
2018-02-20T08:48:18.868Z,13.80
2018-02-20T08:53:18.291Z,13.80
2018-02-20T08:55:47.739Z,13.80
2018-02-20T08:58:17.300Z,13.90
2018-02-20T09:03:17.756Z,14.00
2018-02-20T09:05:46.435Z,14.00
2018-02-20T09:08:15.735Z,14.20
2018-02-20T09:10:44.622Z,13.70
2018-02-20T09:13:14.329Z,13.80
2018-02-20T09:15:44.863Z,13.90
2018-02-20T09:20:44.078Z,14.10
2018-02-20T09:23:13.383Z,14.00
2018-02-20T09:30:43.328Z,13.80
2018-02-20T09:33:13.651Z,13.80
2018-02-20T09:35:42.441Z,13.90
2018-02-20T09:38:12.256Z,13.60
2018-02-20T09:40:42.167Z,13.70
2018-02-20T09:43:11.262Z,13.80
2018-02-20T09:45:40.707Z,14.00
2018-02-20T09:48:09.459Z,14.00
2018-02-20T09:53:09.085Z,14.20
2018-02-20T09:55:38.588Z,14.30
2018-02-20T09:58:09.074Z,14.20
2018-02-20T10:00:38.211Z,14.20
2018-02-20T10:03:07.720Z,14.10
2018-02-20T10:05:37.837Z,14.00
2018-02-20T10:08:06.836Z,13.90
2018-02-20T10:10:36.847Z,14.00
2018-02-20T10:13:06.869Z,14.00
2018-02-20T10:15:37.191Z,14.30
2018-02-20T10:18:06.289Z,14.30
2018-02-20T10:20:35.075Z,14.70
2018-02-20T10:23:04.588Z,14.70
2018-02-20T10:25:34.700Z,14.70
2018-02-20T10:28:03.384Z,14.90
2018-02-20T10:30:33.412Z,15.40
2018-02-20T10:33:02.909Z,15.50
2018-02-20T10:35:32.728Z,15.80
2018-02-20T10:38:02.434Z,15.90
2018-02-20T10:40:31.132Z,15.90
2018-02-20T10:45:31.666Z,16.00
2018-02-20T10:48:00.665Z,16.00
2018-02-20T10:53:01.522Z,15.60
2018-02-20T10:55:30.411Z,15.80
2018-02-20T10:58:00.835Z,15.90
2018-02-20T11:00:30.452Z,16.20
2018-02-20T11:03:00.091Z,16.20
2018-02-20T11:05:29.451Z,15.70
2018-02-20T11:07:59.168Z,15.90
2018-02-20T11:10:27.850Z,15.50
2018-02-20T11:12:57.976Z,15.60
2018-02-20T11:15:27.069Z,15.50
2018-02-20T11:17:56.565Z,15.80
2018-02-20T11:20:25.476Z,15.80
2018-02-20T11:22:54.780Z,15.70
2018-02-20T11:25:24.264Z,15.80
2018-02-20T11:27:53.769Z,15.80
2018-02-20T11:30:24.040Z,15.90
2018-02-20T11:32:53.189Z,16.10
2018-02-20T11:35:22.306Z,16.10
2018-02-20T11:37:50.974Z,16.00
2018-02-20T11:40:19.657Z,16.50
2018-02-20T11:42:48.350Z,16.50
2018-02-20T11:45:17.131Z,16.10
2018-02-20T11:47:46.642Z,15.80
2018-02-20T11:50:16.142Z,15.80
2018-02-20T11:52:45.649Z,16.00
2018-02-20T11:55:14.541Z,16.10
2018-02-20T11:57:44.460Z,16.50
2018-02-20T12:00:13.161Z,16.30
2018-02-20T12:02:41.833Z,16.80
2018-02-20T12:07:41.760Z,16.80
2018-02-20T12:10:10.551Z,16.40
2018-02-20T12:15:09.846Z,16.30
2018-02-20T12:17:38.450Z,15.80
2018-02-20T12:20:07.455Z,16.10
2018-02-20T12:25:07.343Z,16.00
2018-02-20T12:35:06.243Z,16.10
2018-02-20T12:37:35.681Z,15.90
2018-02-20T12:40:05.228Z,15.80
2018-02-20T12:45:04.445Z,16.20
2018-02-20T12:50:03.814Z,16.30
2018-02-20T13:00:02.809Z,16.00
2018-02-20T13:02:33.278Z,16.60
2018-02-20T13:10:02.883Z,15.80
2018-02-20T13:12:33.974Z,15.80
2018-02-20T13:17:33.647Z,16.00
2018-02-20T13:20:03.768Z,15.80
2018-02-20T13:22:33.682Z,15.50
2018-02-20T13:25:03.191Z,15.60
2018-02-20T13:30:03.032Z,15.80
2018-02-20T13:35:03.589Z,16.10
2018-02-20T13:40:04.832Z,15.80
2018-02-20T13:45:03.642Z,15.80
2018-02-20T13:47:33.857Z,16.10
2018-02-20T13:50:03.360Z,16.40
2018-02-20T13:55:04.625Z,16.30
2018-02-20T13:57:34.137Z,16.40
2018-02-20T14:00:03.433Z,16.90
2018-02-20T14:02:33.142Z,17.00
2018-02-20T14:05:01.770Z,16.90
2018-02-20T14:07:31.337Z,16.70
2018-02-20T14:12:30.553Z,17.30
2018-02-20T14:17:29.359Z,16.60
2018-02-20T14:20:00.102Z,16.30
2018-02-20T14:22:30.004Z,16.10
2018-02-20T14:24:59.918Z,16.30
2018-02-20T14:27:29.526Z,16.20
2018-02-20T14:29:59.239Z,16.00
2018-02-20T14:34:59.274Z,15.80
2018-02-20T14:37:28.781Z,15.70
2018-02-20T14:39:59.208Z,15.70
2018-02-20T14:44:59.635Z,15.70
2018-02-20T14:47:29.667Z,15.70
2018-02-20T14:49:59.172Z,15.70
2018-02-20T14:57:29.326Z,16.10
2018-02-20T15:00:00.062Z,15.90
2018-02-20T15:02:29.571Z,15.70
2018-02-20T15:07:28.579Z,15.60
2018-02-20T15:09:57.589Z,15.80
2018-02-20T15:12:26.870Z,15.50
2018-02-20T15:14:55.966Z,15.70
2018-02-20T15:17:25.476Z,15.40
2018-02-20T15:19:55.002Z,15.40
2018-02-20T15:22:25.307Z,15.50
2018-02-20T15:24:55.226Z,15.40
2018-02-20T15:27:24.730Z,15.50
2018-02-20T15:29:54.381Z,15.50
2018-02-20T15:34:53.856Z,15.50
2018-02-20T15:37:23.359Z,15.60
2018-02-20T15:39:52.300Z,15.70
2018-02-20T15:42:21.755Z,15.80
2018-02-20T15:47:21.386Z,15.70
2018-02-20T15:54:51.740Z,15.50
2018-02-20T15:57:21.558Z,15.50
2018-02-20T15:59:51.163Z,15.50
2018-02-20T16:04:50.941Z,15.50
2018-02-20T16:07:20.498Z,15.40
2018-02-20T16:09:50.001Z,15.30
2018-02-20T16:17:20.258Z,15.20
2018-02-20T16:19:50.173Z,15.10
2018-02-20T16:22:20.089Z,15.10
2018-02-20T16:24:49.948Z,15.10
2018-02-20T16:27:20.329Z,15.00
2018-02-20T16:29:50.243Z,15.00
2018-02-20T16:34:50.279Z,14.70
2018-02-20T16:39:50.521Z,14.30
2018-02-20T16:42:25.774Z,14.20
2018-02-20T16:44:55.058Z,14.10
2018-02-20T16:47:25.178Z,14.20
2018-02-20T16:52:24.803Z,14.10
2018-02-20T16:54:53.843Z,14.10
2018-02-20T16:57:23.404Z,14.00
2018-02-20T16:59:53.324Z,14.00
2018-02-20T17:02:22.429Z,14.00
2018-02-20T17:04:51.929Z,13.80
2018-02-20T17:07:21.837Z,13.90
2018-02-20T17:09:52.165Z,13.90
2018-02-20T17:12:21.677Z,13.70
2018-02-20T17:14:51.171Z,13.70
2018-02-20T17:19:51.410Z,13.70
2018-02-20T17:22:21.326Z,13.70
2018-02-20T17:29:50.667Z,13.90
2018-02-20T17:32:20.272Z,13.60
2018-02-20T17:37:19.693Z,13.60
2018-02-20T17:44:49.642Z,13.40
2018-02-20T17:49:49.508Z,13.40
2018-02-20T17:59:50.810Z,13.20
2018-02-20T18:04:52.928Z,13.10
2018-02-20T18:09:53.579Z,13.10
2018-02-20T18:12:23.657Z,13.20
2018-02-20T18:14:53.414Z,13.20
2018-02-20T18:19:53.264Z,13.20
2018-02-20T18:32:22.904Z,13.10
2018-02-20T18:34:52.661Z,13.00
2018-02-20T18:37:22.159Z,13.10
2018-02-20T18:39:51.663Z,13.10
2018-02-20T18:44:51.514Z,13.00
2018-02-20T18:52:21.583Z,13.20
2018-02-20T18:54:50.744Z,13.00
2018-02-20T18:57:20.731Z,13.10
2018-02-20T18:59:50.371Z,13.10
2018-02-20T19:04:49.792Z,13.20
2018-02-20T19:07:19.913Z,13.00
2018-02-20T19:09:50.030Z,13.00
2018-02-20T19:14:49.988Z,13.00
2018-02-20T19:17:19.646Z,13.00
2018-02-20T19:19:49.646Z,13.10
2018-02-20T19:22:19.542Z,13.10
2018-02-20T19:24:50.008Z,13.10
2018-02-20T19:27:19.962Z,13.10
2018-02-20T19:29:50.156Z,13.00
2018-02-20T19:32:20.043Z,13.00
2018-02-20T19:39:49.567Z,13.00
2018-02-20T19:47:19.572Z,12.90
2018-02-20T19:52:19.610Z,13.00
2018-02-20T19:54:48.248Z,13.00
2018-02-20T19:59:47.509Z,12.70
2018-02-20T20:07:17.869Z,12.90
2018-02-20T20:09:47.533Z,12.90
2018-02-20T20:14:46.392Z,13.00
2018-02-20T20:17:16.302Z,12.80
2018-02-20T20:22:15.824Z,12.90
2018-02-20T20:24:44.872Z,12.80
2018-02-20T20:27:14.430Z,13.00
2018-02-20T20:29:43.195Z,12.80
2018-02-20T20:34:42.570Z,13.00
2018-02-20T20:37:11.669Z,12.80
2018-02-20T20:39:41.598Z,13.00
2018-02-20T20:44:41.168Z,13.10
2018-02-20T20:47:10.263Z,12.80
2018-02-20T20:49:38.955Z,12.70
2018-02-20T20:52:08.557Z,12.90
2018-02-20T20:54:38.071Z,12.90
2018-02-20T20:57:07.575Z,12.80
2018-02-20T20:59:36.672Z,13.30
2018-02-20T21:04:36.205Z,12.80
2018-02-20T21:07:05.362Z,12.30
2018-02-20T21:09:35.402Z,12.80
2018-02-20T21:12:05.010Z,12.80
2018-02-20T21:14:34.621Z,12.90
2018-02-20T21:17:04.127Z,12.90
2018-02-20T21:19:33.218Z,12.90
2018-02-20T21:22:01.908Z,12.70
2018-02-20T21:24:31.823Z,12.90
2018-02-20T21:27:00.461Z,13.00
2018-02-20T21:29:29.313Z,12.70
2018-02-20T21:31:59.827Z,12.80
2018-02-20T21:34:28.513Z,12.70
2018-02-20T21:36:58.034Z,12.80
2018-02-20T21:39:27.114Z,12.80
2018-02-20T21:41:56.313Z,12.80
2018-02-20T21:44:25.205Z,13.10
2018-02-20T21:46:54.811Z,12.90
2018-02-20T21:49:23.909Z,13.00
2018-02-20T21:54:23.531Z,13.00
2018-02-20T21:56:52.218Z,12.90
2018-02-20T21:59:21.269Z,13.00
2018-02-20T22:01:50.518Z,13.40
2018-02-20T22:04:19.514Z,13.10
2018-02-20T22:06:48.293Z,13.00
2018-02-20T22:09:18.291Z,12.70
2018-02-20T22:11:47.874Z,12.90
2018-02-20T22:14:17.427Z,12.90
2018-02-20T22:16:47.302Z,12.90
2018-02-20T22:19:16.804Z,12.80
2018-02-20T22:21:45.940Z,12.80
2018-02-20T22:26:46.591Z,12.80
2018-02-20T22:29:16.201Z,12.80
2018-02-20T22:31:46.529Z,12.90
2018-02-20T22:34:16.230Z,12.80
2018-02-20T22:36:45.847Z,12.80
2018-02-20T22:39:18.937Z,12.80
2018-02-20T22:41:48.543Z,12.80
2018-02-20T22:44:17.433Z,12.70
2018-02-20T22:46:46.295Z,12.50
2018-02-20T22:49:15.937Z,13.10
2018-02-20T22:51:45.946Z,12.80
2018-02-20T22:54:15.505Z,12.90
2018-02-20T22:56:44.284Z,13.00
2018-02-20T22:59:13.849Z,12.80
2018-02-20T23:01:43.965Z,12.90
2018-02-20T23:04:12.842Z,13.10
2018-02-20T23:06:43.395Z,12.70
2018-02-20T23:09:12.484Z,12.80
2018-02-20T23:11:48.142Z,12.60
2018-02-20T23:14:17.438Z,12.60
2018-02-20T23:16:46.944Z,12.70
2018-02-20T23:19:16.796Z,12.70
2018-02-20T23:21:45.544Z,12.40
2018-02-20T23:26:45.990Z,12.60
2018-02-20T23:29:15.288Z,12.60
2018-02-20T23:31:44.796Z,12.60
2018-02-20T23:34:14.306Z,12.60
2018-02-20T23:36:44.213Z,12.60
2018-02-20T23:39:13.932Z,12.50
2018-02-20T23:41:43.475Z,12.70
2018-02-20T23:44:13.760Z,12.50
2018-02-20T23:46:43.873Z,12.50
2018-02-20T23:49:13.179Z,12.10
2018-02-20T23:51:41.964Z,12.10
2018-02-20T23:54:11.466Z,12.30
2018-02-20T23:56:40.668Z,12.30
